Time;durP1;ratioP1;P1;durP2;ratioP2;P2;SDS_P1;SDS_P2;PMS_P1;PMS_P2;Temp;Humidity;BMP_temperature;BMP_pressure;BME280_temperature;BME280_humidity;BME280_pressure;Samples;Min_cycle;Max_cycle;Signal;HPM_P1;HPM_P2
2023/08/27 00:01:01;;;;;;;6.53;6.03;;;14.00;99.90;;;;;;5033898;28;20041;-82
2023/08/27 00:03:27;;;;;;;5.95;5.50;;;14.00;99.90;;;;;;5037131;28;20067;-81
2023/08/27 00:05:52;;;;;;;6.18;5.65;;;14.00;99.90;;;;;;5011734;28;20088;-80
2023/08/27 00:08:18;;;;;;;6.70;5.72;;;14.00;99.90;;;;;;5031209;28;20037;-81
2023/08/27 00:10:44;;;;;;;5.80;5.40;;;14.00;99.90;;;;;;5042010;28;20082;-80
2023/08/27 00:13:09;;;;;;;6.03;5.53;;;14.00;99.90;;;;;;5015793;28;20481;-81
2023/08/27 00:15:35;;;;;;;6.13;5.63;;;14.90;99.90;;;;;;5031372;28;20045;-80
2023/08/27 00:18:01;;;;;;;6.43;5.72;;;14.00;99.90;;;;;;5040536;28;20438;-80
2023/08/27 00:20:26;;;;;;;5.80;5.22;;;14.40;99.90;;;;;;5050457;28;20493;-81
2023/08/27 00:22:52;;;;;;;5.35;4.93;;;14.00;99.90;;;;;;5046193;28;20040;-80
2023/08/27 00:25:18;;;;;;;6.18;5.28;;;14.10;99.90;;;;;;5025984;28;20060;-81
2023/08/27 00:27:43;;;;;;;5.85;5.35;;;14.00;99.90;;;;;;5045051;28;20036;-81
2023/08/27 00:30:09;;;;;;;5.57;5.28;;;14.00;99.90;;;;;;5051407;28;20444;-81
2023/08/27 00:32:35;;;;;;;4.80;4.50;;;13.90;99.90;;;;;;5052162;28;20056;-82
2023/08/27 00:35:03;;;;;;;5.82;5.30;;;14.00;99.90;;;;;;5035135;28;20036;-81
2023/08/27 00:37:29;;;;;;;5.80;5.32;;;15.00;99.90;;;;;;5044989;28;20041;-81
2023/08/27 00:39:55;;;;;;;6.38;5.70;;;14.00;99.90;;;;;;5045151;28;20045;-80
2023/08/27 00:42:21;;;;;;;6.43;5.40;;;14.00;99.90;;;;;;5043279;28;20115;-82
2023/08/27 00:44:47;;;;;;;6.03;5.20;;;14.00;99.90;;;;;;5045665;28;20538;-80
2023/08/27 00:47:15;;;;;;;6.35;5.75;;;14.00;99.90;;;;;;5041470;28;20131;-81
2023/08/27 00:49:42;;;;;;;5.95;5.45;;;13.90;99.90;;;;;;5051139;28;20040;-81
2023/08/27 00:52:08;;;;;;;6.57;6.07;;;14.20;99.90;;;;;;5044056;28;20053;-80
2023/08/27 00:54:35;;;;;;;5.60;5.07;;;13.90;99.90;;;;;;5049653;28;20473;-81
2023/08/27 00:57:03;;;;;;;6.32;5.70;;;13.90;99.90;;;;;;5051363;28;20436;-81
2023/08/27 00:59:29;;;;;;;5.57;5.22;;;13.90;99.90;;;;;;5046243;28;20116;-81
2023/08/27 01:01:55;;;;;;;5.97;5.35;;;13.90;99.90;;;;;;5047165;28;20477;-82
2023/08/27 01:04:21;;;;;;;5.22;4.85;;;14.30;99.90;;;;;;5046985;28;20404;-82
2023/08/27 01:06:47;;;;;;;5.85;5.28;;;13.90;99.90;;;;;;5049994;28;20048;-81
2023/08/27 01:09:27;;;;;;;5.55;4.97;;;14.30;99.90;;;;;;5033980;28;20044;-80
2023/08/27 01:12:09;;;;;;;7.95;5.88;;;13.90;99.90;;;;;;5032485;28;20080;-81
2023/08/27 01:14:36;;;;;;;6.07;4.68;;;13.80;99.90;;;;;;5052400;28;20029;-81
2023/08/27 01:17:03;;;;;;;5.80;5.30;;;13.90;99.90;;;;;;5050598;28;20044;-81
2023/08/27 01:19:30;;;;;;;6.13;5.63;;;13.90;99.90;;;;;;5046954;28;21062;-81
2023/08/27 01:21:56;;;;;;;6.15;4.95;;;13.80;99.90;;;;;;5032379;28;20041;-81
2023/08/27 01:24:22;;;;;;;6.30;5.80;;;13.80;99.90;;;;;;5045629;28;20041;-80
2023/08/27 01:26:54;;;;;;;5.38;4.88;;;13.90;99.90;;;;;;5050618;28;20409;-81
2023/08/27 01:29:35;;;;;;;5.13;4.78;;;13.80;99.90;;;;;;5044572;28;20486;-80
2023/08/27 01:32:12;;;;;;;7.00;5.38;;;13.90;99.90;;;;;;5047780;28;20147;-81
2023/08/27 01:34:40;;;;;;;5.05;4.65;;;13.80;99.90;;;;;;5049717;28;20052;-80
2023/08/27 01:37:06;;;;;;;5.63;4.95;;;13.80;99.90;;;;;;5051224;28;20045;-82
2023/08/27 01:39:32;;;;;;;6.00;5.45;;;14.00;99.90;;;;;;5050829;28;20481;-81
2023/08/27 01:41:58;;;;;;;6.55;5.53;;;13.80;99.90;;;;;;5053541;28;20044;-81
2023/08/27 01:44:24;;;;;;;5.68;4.82;;;13.80;99.90;;;;;;5037825;28;20047;-81
2023/08/27 01:46:50;;;;;;;5.30;4.90;;;13.80;99.90;;;;;;5032647;28;20095;-81
2023/08/27 01:49:15;;;;;;;5.38;4.88;;;13.80;99.90;;;;;;5049942;28;20041;-81
2023/08/27 01:51:41;;;;;;;6.80;4.68;;;13.80;99.90;;;;;;5031698;28;20404;-80
2023/08/27 01:54:07;;;;;;;5.30;4.90;;;14.00;99.90;;;;;;5049186;28;20060;-81
2023/08/27 01:56:33;;;;;;;5.18;4.35;;;13.80;99.90;;;;;;5038641;28;20060;-81
2023/08/27 01:58:58;;;;;;;5.20;4.75;;;13.80;99.90;;;;;;5047513;28;20037;-81
2023/08/27 02:01:24;;;;;;;4.95;4.28;;;14.10;99.90;;;;;;5045713;28;20033;-82
2023/08/27 02:03:50;;;;;;;5.43;4.97;;;13.80;99.90;;;;;;5049006;28;20050;-81
2023/08/27 02:06:15;;;;;;;4.97;4.47;;;13.80;99.90;;;;;;5047444;28;20052;-82
2023/08/27 02:08:41;;;;;;;6.57;4.90;;;13.80;99.90;;;;;;5050299;28;20392;-82
2023/08/27 02:11:06;;;;;;;4.97;4.28;;;13.70;99.90;;;;;;5014458;28;20441;-83
2023/08/27 02:13:32;;;;;;;8.07;4.63;;;13.80;99.90;;;;;;5012927;28;20806;-82
2023/08/27 02:15:58;;;;;;;4.32;4.03;;;13.70;99.90;;;;;;5032006;28;20618;-82
2023/08/27 02:18:23;;;;;;;6.70;5.60;;;13.80;99.90;;;;;;5032070;28;20045;-82
2023/08/27 02:20:49;;;;;;;4.75;4.35;;;13.70;99.90;;;;;;5039491;28;20084;-82
2023/08/27 02:23:15;;;;;;;5.00;4.60;;;13.70;99.90;;;;;;5046259;28;20084;-83
2023/08/27 02:25:41;;;;;;;5.15;4.65;;;13.70;99.90;;;;;;5040783;28;20033;-82
2023/08/27 02:28:07;;;;;;;5.75;5.28;;;13.70;99.90;;;;;;5049432;28;20053;-82
2023/08/27 02:30:32;;;;;;;5.15;4.70;;;13.70;99.90;;;;;;5029458;28;20056;-81
2023/08/27 02:32:58;;;;;;;4.70;4.40;;;13.70;99.90;;;;;;5048256;28;20045;-83
2023/08/27 02:35:24;;;;;;;5.28;4.70;;;14.60;99.90;;;;;;5049564;28;20052;-83
2023/08/27 02:37:49;;;;;;;11.40;5.00;;;13.70;99.90;;;;;;5030853;28;20037;-82
2023/08/27 02:40:17;;;;;;;5.57;5.15;;;13.70;99.90;;;;;;5032262;28;20037;-82
2023/08/27 02:42:43;;;;;;;5.63;5.22;;;13.70;99.90;;;;;;5047952;28;20060;-82
2023/08/27 02:45:09;;;;;;;7.25;5.32;;;13.60;99.90;;;;;;5029349;28;20044;-81
2023/08/27 02:47:34;;;;;;;5.53;5.13;;;13.60;99.90;;;;;;5048600;28;20053;-82
2023/08/27 02:50:00;;;;;;;5.45;4.95;;;13.80;99.90;;;;;;5047516;28;20440;-82
2023/08/27 02:52:26;;;;;;;6.78;5.35;;;14.20;99.90;;;;;;5048920;28;20075;-82
2023/08/27 02:54:51;;;;;;;7.10;4.88;;;13.60;99.90;;;;;;5048300;28;20472;-82
2023/08/27 02:57:17;;;;;;;5.68;5.10;;;13.60;99.90;;;;;;5049034;28;20764;-83
2023/08/27 02:59:42;;;;;;;6.70;5.32;;;13.60;99.90;;;;;;5049474;28;20076;-81
2023/08/27 03:02:08;;;;;;;5.70;5.20;;;13.60;99.90;;;;;;5044231;28;20172;-82
2023/08/27 03:04:34;;;;;;;5.35;4.88;;;13.60;99.90;;;;;;5039293;28;20037;-82
2023/08/27 03:06:59;;;;;;;5.90;5.43;;;13.50;99.90;;;;;;5043577;28;20405;-82
2023/08/27 03:09:25;;;;;;;6.10;5.35;;;13.20;99.90;;;;;;5023842;28;20164;-81
2023/08/27 03:11:50;;;;;;;6.15;5.65;;;13.50;99.90;;;;;;5042064;28;20133;-81
2023/08/27 03:14:16;;;;;;;6.45;5.82;;;13.50;99.90;;;;;;5036481;28;20512;-82
2023/08/27 03:16:41;;;;;;;7.18;5.88;;;13.50;99.90;;;;;;5033240;28;20040;-82
2023/08/27 03:19:07;;;;;;;7.35;5.43;;;13.40;99.90;;;;;;5024451;28;20512;-82
2023/08/27 03:21:33;;;;;;;11.20;5.45;;;13.50;99.90;;;;;;5041898;28;20043;-82
2023/08/27 03:23:58;;;;;;;7.65;5.57;;;13.50;99.90;;;;;;5042159;28;20489;-81
2023/08/27 03:26:24;;;;;;;8.50;6.07;;;14.60;99.90;;;;;;5049488;28;20075;-82
2023/08/27 03:28:50;;;;;;;9.07;6.15;;;13.40;99.90;;;;;;5044578;28;20584;-81
2023/08/27 03:31:16;;;;;;;6.82;6.15;;;13.40;99.90;;;;;;5002006;28;20053;-83
2023/08/27 03:33:42;;;;;;;7.78;6.50;;;13.40;99.90;;;;;;5010299;28;20596;-83
2023/08/27 03:36:08;;;;;;;6.47;5.85;;;13.40;99.90;;;;;;5009657;28;20037;-82
2023/08/27 03:38:33;;;;;;;6.65;5.78;;;13.40;99.90;;;;;;5009373;28;20046;-83
2023/08/27 03:40:59;;;;;;;5.75;5.25;;;13.30;99.90;;;;;;5025351;28;20407;-81
2023/08/27 03:43:25;;;;;;;6.25;5.70;;;13.40;99.90;;;;;;5009642;28;21150;-82
2023/08/27 03:45:51;;;;;;;6.00;5.50;;;13.40;99.90;;;;;;5010068;28;20128;-82
2023/08/27 03:48:17;;;;;;;6.20;5.70;;;14.70;99.90;;;;;;5007820;28;20382;-83
2023/08/27 03:50:42;;;;;;;7.43;5.70;;;13.40;99.90;;;;;;5009867;28;20053;-83
2023/08/27 03:53:10;;;;;;;7.35;6.50;;;13.40;99.90;;;;;;5009693;28;20192;-83
2023/08/27 03:55:39;;;;;;;6.40;5.90;;;13.40;99.90;;;;;;5008950;28;20160;-82
2023/08/27 03:58:06;;;;;;;6.32;5.75;;;13.50;99.90;;;;;;5013674;28;20383;-83
2023/08/27 04:00:33;;;;;;;8.68;5.97;;;13.50;99.90;;;;;;5012711;28;20132;-82
2023/08/27 04:02:59;;;;;;;7.72;6.93;;;14.10;99.90;;;;;;5013889;28;20045;-82
2023/08/27 04:05:25;;;;;;;6.25;5.75;;;14.00;99.90;;;;;;5002362;28;20082;-82
2023/08/27 04:07:51;;;;;;;6.93;6.28;;;13.50;99.90;;;;;;5011694;28;20080;-81
2023/08/27 04:10:16;;;;;;;6.78;5.70;;;13.50;99.90;;;;;;5012693;28;20053;-83
2023/08/27 04:12:42;;;;;;;6.10;5.50;;;13.50;99.90;;;;;;5013420;28;20049;-83
2023/08/27 04:15:08;;;;;;;6.60;6.00;;;14.20;99.90;;;;;;5025027;28;20042;-81
2023/08/27 04:17:34;;;;;;;7.15;6.55;;;13.50;99.90;;;;;;5011566;28;20405;-83
2023/08/27 04:19:59;;;;;;;9.32;6.97;;;13.50;99.90;;;;;;5007733;28;20034;-82
2023/08/27 04:22:25;;;;;;;7.07;6.38;;;14.80;99.90;;;;;;5026471;28;20050;-82
2023/08/27 04:24:51;;;;;;;7.47;6.88;;;14.40;99.90;;;;;;5010102;28;20261;-82
2023/08/27 04:27:16;;;;;;;7.55;6.85;;;13.50;99.90;;;;;;5009508;28;20046;-81
2023/08/27 04:29:43;;;;;;;7.22;6.63;;;13.50;99.90;;;;;;5010829;28;20034;-82
2023/08/27 04:32:09;;;;;;;8.60;6.43;;;13.50;99.90;;;;;;5009975;28;20054;-81
2023/08/27 04:34:35;;;;;;;8.23;6.93;;;14.00;99.90;;;;;;5008140;28;20188;-82
2023/08/27 04:37:03;;;;;;;8.60;6.72;;;13.70;99.90;;;;;;5012969;28;20119;-82
2023/08/27 04:39:29;;;;;;;7.25;6.63;;;14.60;99.90;;;;;;5013364;28;20394;-82
2023/08/27 04:41:55;;;;;;;7.22;6.53;;;13.50;99.90;;;;;;5015732;28;20042;-83
2023/08/27 04:44:21;;;;;;;7.07;6.40;;;13.50;99.90;;;;;;5014069;28;20049;-83
2023/08/27 04:46:46;;;;;;;7.00;6.30;;;13.50;99.90;;;;;;5013180;28;20045;-82
2023/08/27 04:49:13;;;;;;;8.48;6.40;;;13.50;99.90;;;;;;5013277;28;20057;-83
2023/08/27 04:51:38;;;;;;;6.57;5.97;;;13.50;99.90;;;;;;5017267;28;20065;-82
2023/08/27 04:54:07;;;;;;;7.25;6.55;;;13.50;99.90;;;;;;5015310;28;20042;-82
2023/08/27 04:56:33;;;;;;;7.25;5.85;;;13.40;99.90;;;;;;5014080;28;20049;-84
2023/08/27 04:58:59;;;;;;;6.88;6.32;;;13.40;99.90;;;;;;5015566;28;20049;-82
2023/08/27 05:01:25;;;;;;;5.80;5.35;;;13.50;99.90;;;;;;5013796;28;20081;-82
2023/08/27 05:03:53;;;;;;;11.10;6.18;;;13.40;99.90;;;;;;5014183;28;20073;-83
2023/08/27 05:06:18;;;;;;;5.53;5.18;;;14.40;99.90;;;;;;5014512;28;20084;-82
2023/08/27 05:08:44;;;;;;;5.80;5.32;;;13.40;99.90;;;;;;5019540;28;20033;-83
2023/08/27 05:11:12;;;;;;;5.72;5.22;;;14.40;99.90;;;;;;5021042;28;20132;-82
2023/08/27 05:13:39;;;;;;;6.43;5.30;;;13.40;99.90;;;;;;5012526;28;20050;-82
2023/08/27 05:16:05;;;;;;;6.47;5.53;;;13.40;99.90;;;;;;5014846;28;20048;-84
2023/08/27 05:18:38;;;;;;;8.93;5.65;;;14.70;99.90;;;;;;5011945;28;20037;-83
2023/08/27 05:21:05;;;;;;;6.35;5.75;;;13.40;99.90;;;;;;5014257;28;20037;-83
2023/08/27 05:23:30;;;;;;;6.50;6.00;;;14.70;99.90;;;;;;5021190;28;20088;-82
2023/08/27 05:26:05;;;;;;;8.07;6.80;;;13.40;99.90;;;;;;5012570;28;20612;-83
2023/08/27 05:28:30;;;;;;;6.60;5.90;;;13.40;99.90;;;;;;4999850;28;20086;-82
2023/08/27 05:30:59;;;;;;;6.63;6.03;;;13.50;99.90;;;;;;5004470;28;20100;-84
2023/08/27 05:33:25;;;;;;;7.00;6.07;;;14.20;99.90;;;;;;5020140;28;20477;-84
2023/08/27 05:35:50;;;;;;;6.55;5.93;;;13.50;99.90;;;;;;5012924;28;20143;-84
2023/08/27 05:38:19;;;;;;;7.30;6.60;;;13.50;99.90;;;;;;5008798;28;20037;-84
2023/08/27 05:40:44;;;;;;;6.82;5.95;;;13.50;99.90;;;;;;5016178;28;20065;-84
2023/08/27 05:43:10;;;;;;;8.35;6.38;;;13.50;99.90;;;;;;5005973;28;20037;-82
2023/08/27 05:45:36;;;;;;;6.68;6.13;;;13.60;99.90;;;;;;4999498;28;20053;-82
2023/08/27 05:48:02;;;;;;;7.68;6.97;;;13.60;99.90;;;;;;5010640;28;20046;-83
2023/08/27 05:50:27;;;;;;;8.10;6.28;;;13.60;99.90;;;;;;5005197;28;20045;-83
2023/08/27 05:52:53;;;;;;;7.95;6.03;;;13.60;99.90;;;;;;5006693;28;20413;-82
2023/08/27 05:55:19;;;;;;;10.25;6.38;;;13.70;99.90;;;;;;5010521;28;20049;-84
2023/08/27 05:57:44;;;;;;;37.28;33.42;;;13.70;99.90;;;;;;5011515;28;20034;-82
2023/08/27 06:00:10;;;;;;;32.30;26.30;;;13.70;99.90;;;;;;5016523;28;20425;-81
2023/08/27 06:02:37;;;;;;;8.80;7.90;;;13.70;99.90;;;;;;5011765;28;20116;-83
2023/08/27 06:05:04;;;;;;;8.20;6.93;;;13.70;99.90;;;;;;5013453;28;20052;-83
2023/08/27 06:07:29;;;;;;;9.00;6.63;;;13.80;99.90;;;;;;5015463;28;20402;-82
2023/08/27 06:09:55;;;;;;;7.35;6.43;;;13.70;99.90;;;;;;5012648;28;20054;-83
2023/08/27 06:12:21;;;;;;;7.53;6.55;;;13.70;99.90;;;;;;5010345;28;20053;-82
2023/08/27 06:14:46;;;;;;;7.90;7.10;;;13.80;99.90;;;;;;5012012;28;20041;-82
2023/08/27 06:17:12;;;;;;;22.48;19.67;;;13.80;99.90;;;;;;5018329;28;20045;-83
2023/08/27 06:19:37;;;;;;;8.80;7.90;;;13.80;99.90;;;;;;5011735;28;20478;-83
2023/08/27 06:22:03;;;;;;;7.22;6.43;;;13.80;99.90;;;;;;5018450;28;20038;-83
2023/08/27 06:24:29;;;;;;;7.28;6.50;;;13.80;99.90;;;;;;5011151;28;20044;-83
2023/08/27 06:26:54;;;;;;;7.78;6.32;;;14.00;99.90;;;;;;5015251;28;20065;-83
2023/08/27 06:29:20;;;;;;;7.25;6.53;;;14.90;99.90;;;;;;5012215;28;20466;-83
2023/08/27 06:31:46;;;;;;;7.85;7.10;;;14.30;99.90;;;;;;5008853;28;20053;-81
2023/08/27 06:34:12;;;;;;;7.32;6.68;;;13.90;99.90;;;;;;5006394;28;20049;-84
2023/08/27 06:36:38;;;;;;;7.65;6.75;;;15.50;99.90;;;;;;5008172;28;20437;-83
2023/08/27 06:39:04;;;;;;;6.88;6.22;;;13.90;99.90;;;;;;4660166;28;10000641;-83
2023/08/27 06:41:30;;;;;;;7.25;6.53;;;14.00;99.90;;;;;;5007679;28;20037;-83
2023/08/27 06:43:56;;;;;;;11.50;7.20;;;14.90;99.90;;;;;;5005072;28;20409;-81
2023/08/27 06:46:21;;;;;;;7.22;6.30;;;14.00;99.90;;;;;;5009699;28;20045;-82
2023/08/27 06:48:47;;;;;;;6.80;6.20;;;14.30;99.90;;;;;;5006229;28;20066;-83
2023/08/27 06:51:12;;;;;;;6.97;6.20;;;14.00;99.90;;;;;;5011717;28;20046;-81
2023/08/27 06:53:40;;;;;;;8.30;6.22;;;14.00;99.90;;;;;;5005766;28;20093;-82
2023/08/27 06:56:06;;;;;;;8.13;5.80;;;14.00;99.90;;;;;;5000867;28;20117;-83
2023/08/27 06:58:31;;;;;;;6.65;6.00;;;14.00;99.90;;;;;;5000803;28;20133;-82
2023/08/27 07:00:57;;;;;;;9.70;7.03;;;14.00;99.90;;;;;;4998446;28;20081;-83
2023/08/27 07:03:23;;;;;;;7.35;5.60;;;14.10;99.90;;;;;;5006088;28;20050;-83
2023/08/27 07:05:48;;;;;;;9.82;5.70;;;14.10;99.90;;;;;;5000146;28;20141;-81
2023/08/27 07:08:14;;;;;;;8.05;5.32;;;14.10;99.90;;;;;;5006003;28;20053;-82
2023/08/27 07:10:40;;;;;;;7.07;5.15;;;14.10;99.90;;;;;;5007194;28;20042;-82
2023/08/27 07:13:05;;;;;;;4.97;4.47;;;14.10;99.90;;;;;;5005230;28;20049;-82
2023/08/27 07:15:31;;;;;;;6.07;4.35;;;14.70;99.90;;;;;;5007491;28;20045;-82
2023/08/27 07:18:01;;;;;;;5.05;4.07;;;14.10;99.90;;;;;;4985706;28;20401;-83
2023/08/27 07:20:27;;;;;;;6.40;4.72;;;14.10;99.90;;;;;;5005791;28;20146;-82
2023/08/27 07:22:52;;;;;;;5.72;3.72;;;14.10;99.90;;;;;;5006910;28;20111;-83
2023/08/27 07:25:24;;;;;;;4.95;4.13;;;14.20;99.90;;;;;;5000691;28;20046;-83
2023/08/27 07:27:49;;;;;;;5.05;4.55;;;15.60;99.90;;;;;;5003328;28;20089;-84
2023/08/27 07:30:15;;;;;;;7.10;4.03;;;15.10;99.90;;;;;;5001511;28;20464;-84
2023/08/27 07:32:41;;;;;;;5.35;3.85;;;14.50;99.90;;;;;;5012892;28;20084;-83
2023/08/27 07:35:07;;;;;;;4.97;3.67;;;14.40;99.90;;;;;;5012828;28;20053;-83
2023/08/27 07:37:33;;;;;;;3.95;3.50;;;14.30;99.90;;;;;;5016178;28;20616;-83
2023/08/27 07:39:59;;;;;;;4.20;3.78;;;14.30;99.90;;;;;;5010210;28;20049;-83
2023/08/27 07:42:24;;;;;;;4.90;3.33;;;14.40;99.90;;;;;;5011483;28;20046;-82
2023/08/27 07:44:50;;;;;;;4.80;3.35;;;14.30;99.90;;;;;;5010211;28;20042;-80
2023/08/27 07:47:16;;;;;;;8.90;3.92;;;14.40;99.90;;;;;;5008577;28;20049;-83
2023/08/27 07:49:42;;;;;;;5.75;4.20;;;14.30;99.90;;;;;;5005499;28;20065;-81
2023/08/27 07:52:08;;;;;;;10.45;6.80;;;14.40;99.90;;;;;;5006251;28;20042;-81
2023/08/27 07:54:33;;;;;;;4.93;3.60;;;15.40;99.90;;;;;;5007957;28;20042;-81
2023/08/27 07:57:01;;;;;;;9.70;4.15;;;14.40;99.90;;;;;;5006775;28;20045;-82
2023/08/27 07:59:26;;;;;;;4.65;3.58;;;14.50;99.90;;;;;;5006495;28;20042;-81
2023/08/27 08:01:52;;;;;;;5.40;3.65;;;14.70;99.90;;;;;;5007827;28;20490;-81
2023/08/27 08:04:17;;;;;;;8.23;4.05;;;14.60;99.90;;;;;;5005167;28;20038;-82
2023/08/27 08:06:43;;;;;;;4.50;3.63;;;14.60;99.90;;;;;;5005088;28;20053;-81
2023/08/27 08:09:09;;;;;;;6.53;3.40;;;14.90;99.90;;;;;;5004343;28;20052;-81
2023/08/27 08:11:34;;;;;;;7.93;4.13;;;14.70;99.90;;;;;;5010294;28;20116;-82
2023/08/27 08:14:00;;;;;;;5.03;3.88;;;14.80;99.90;;;;;;5002811;28;20129;-82
2023/08/27 08:16:26;;;;;;;6.43;3.80;;;14.90;99.90;;;;;;5005374;28;20129;-82
2023/08/27 08:18:51;;;;;;;6.88;3.67;;;14.80;99.90;;;;;;5005461;28;20674;-82
2023/08/27 08:21:18;;;;;;;3.58;3.20;;;14.80;99.90;;;;;;5005537;28;20033;-81
2023/08/27 08:23:44;;;;;;;7.03;3.13;;;14.90;99.90;;;;;;5006433;28;20037;-81
2023/08/27 08:26:09;;;;;;;4.00;3.67;;;14.90;99.90;;;;;;5012578;28;20379;-82
2023/08/27 08:28:35;;;;;;;3.50;3.20;;;15.00;99.90;;;;;;5007334;28;20038;-82
2023/08/27 08:31:01;;;;;;;2.83;2.60;;;14.80;99.90;;;;;;5032116;28;20137;-82
2023/08/27 08:33:26;;;;;;;3.58;2.95;;;14.50;99.90;;;;;;5051380;28;20056;-81
2023/08/27 08:35:52;;;;;;;2.90;2.53;;;15.20;99.90;;;;;;5050409;28;20037;-80
2023/08/27 08:38:21;;;;;;;3.35;3.08;;;15.30;99.90;;;;;;5045295;28;20067;-82
2023/08/27 08:40:58;;;;;;;5.13;2.90;;;15.30;99.90;;;;;;5050114;28;20045;-82
2023/08/27 08:43:30;;;;;;;4.45;2.10;;;15.40;99.90;;;;;;5044166;28;20047;-82
2023/08/27 08:46:04;;;;;;;3.38;2.38;;;15.50;99.90;;;;;;5013567;28;20124;-83
2023/08/27 08:48:39;;;;;;;2.60;2.05;;;15.50;99.90;;;;;;5042507;28;20037;-82
2023/08/27 08:51:07;;;;;;;4.05;2.42;;;15.50;99.90;;;;;;5016728;28;20037;-83
2023/08/27 08:53:39;;;;;;;2.60;1.98;;;15.60;99.90;;;;;;5031381;28;20036;-83
2023/08/27 08:56:09;;;;;;;2.72;1.92;;;15.60;99.90;;;;;;5031170;28;20037;-85
2023/08/27 08:58:37;;;;;;;4.75;2.10;;;15.60;99.90;;;;;;5033895;28;20060;-86
2023/08/27 09:01:06;;;;;;;1.45;1.35;;;15.60;99.90;;;;;;5033769;28;20087;-84
2023/08/27 09:03:34;;;;;;;2.00;1.67;;;15.70;99.90;;;;;;5047938;28;20482;-84
2023/08/27 09:06:01;;;;;;;2.33;1.42;;;15.80;99.90;;;;;;5040956;28;20107;-82
2023/08/27 09:08:28;;;;;;;5.55;1.95;;;16.30;99.90;;;;;;5043777;28;20136;-85
2023/08/27 09:10:54;;;;;;;4.97;1.65;;;15.90;99.90;;;;;;5043806;28;20045;-84
2023/08/27 09:13:21;;;;;;;4.25;1.60;;;16.00;99.90;;;;;;5042148;28;20055;-84
2023/08/27 09:15:50;;;;;;;2.05;1.58;;;16.00;99.90;;;;;;5040131;28;20048;-82
2023/08/27 09:18:16;;;;;;;2.88;1.85;;;16.00;99.90;;;;;;5047602;28;20419;-82
2023/08/27 09:20:45;;;;;;;3.28;1.73;;;16.20;99.90;;;;;;5030865;28;20066;-82
2023/08/27 09:23:13;;;;;;;3.50;1.55;;;16.20;99.90;;;;;;5049123;28;20499;-83
2023/08/27 09:25:39;;;;;;;4.80;2.55;;;16.20;99.90;;;;;;5051008;28;20112;-82
2023/08/27 09:28:06;;;;;;;4.30;1.83;;;16.30;99.90;;;;;;5051353;28;20041;-83
2023/08/27 09:30:33;;;;;;;4.25;2.00;;;16.30;99.90;;;;;;5042650;28;20413;-84
2023/08/27 09:33:00;;;;;;;4.45;1.88;;;16.40;99.90;;;;;;5051235;28;20051;-82
2023/08/27 09:35:46;;;;;;;3.33;2.17;;;16.40;99.90;;;;;;5047371;28;20045;-82
2023/08/27 09:38:14;;;;;;;4.82;1.90;;;16.40;99.90;;;;;;5047039;28;20037;-82
2023/08/27 09:40:40;;;;;;;4.03;1.98;;;16.50;99.90;;;;;;5032882;28;20037;-82
2023/08/27 09:43:08;;;;;;;1.98;1.35;;;16.80;99.90;;;;;;5049784;28;20082;-81
2023/08/27 09:45:35;;;;;;;4.28;1.55;;;16.70;99.90;;;;;;5025203;28;20096;-81
2023/08/27 09:48:01;;;;;;;2.45;1.20;;;17.20;99.90;;;;;;5030182;28;20501;-83
2023/08/27 09:50:31;;;;;;;1.77;1.30;;;16.90;99.90;;;;;;5050993;28;20045;-92
2023/08/27 09:53:10;;;;;;;1.42;1.30;;;16.90;99.90;;;;;;5014782;28;20044;-83
2023/08/27 09:55:37;;;;;;;1.30;1.20;;;17.00;99.90;;;;;;5026565;28;20469;-83
2023/08/27 09:58:06;;;;;;;3.40;1.42;;;17.00;99.90;;;;;;5048328;28;20125;-83
2023/08/27 10:00:34;;;;;;;4.03;1.30;;;17.00;99.90;;;;;;5049474;28;20072;-83
2023/08/27 10:02:59;;;;;;;1.00;1.00;;;17.00;99.90;;;;;;5048998;28;20045;-81
2023/08/27 10:05:31;;;;;;;3.35;1.60;;;17.00;99.90;;;;;;5050100;28;20039;-85
2023/08/27 10:08:06;;;;;;;2.65;1.98;;;16.90;99.90;;;;;;5049788;28;20048;-82
2023/08/27 10:10:33;;;;;;;2.17;1.50;;;16.90;99.90;;;;;;5047989;28;20393;-82
2023/08/27 10:13:00;;;;;;;3.53;1.38;;;16.90;99.90;;;;;;5048485;28;20044;-83
2023/08/27 10:15:27;;;;;;;1.55;1.45;;;16.90;99.90;;;;;;5035224;28;20045;-84
2023/08/27 10:17:53;;;;;;;4.18;1.30;;;17.00;99.90;;;;;;5050953;28;20526;-86
2023/08/27 10:20:20;;;;;;;2.15;1.00;;;17.10;99.90;;;;;;5048809;28;20041;-84
2023/08/27 10:22:47;;;;;;;5.28;1.10;;;17.10;99.90;;;;;;5030864;28;20041;-81
2023/08/27 10:25:19;;;;;;;2.60;1.30;;;18.00;99.90;;;;;;5049974;28;20047;-87
2023/08/27 10:27:53;;;;;;;1.10;0.98;;;17.20;99.90;;;;;;5011189;28;20111;-85
2023/08/27 10:30:18;;;;;;;1.67;0.88;;;17.20;99.90;;;;;;5030299;28;20075;-84
2023/08/27 10:32:45;;;;;;;1.60;1.00;;;17.30;99.90;;;;;;5032328;28;20045;-86
2023/08/27 10:35:12;;;;;;;1.10;0.95;;;17.30;99.90;;;;;;5032682;28;20128;-84
2023/08/27 10:37:48;;;;;;;11.88;9.05;;;17.30;99.90;;;;;;5050753;28;20033;-85
2023/08/27 10:40:16;;;;;;;2.55;1.55;;;17.20;99.90;;;;;;5032933;28;20108;-85
2023/08/27 10:42:42;;;;;;;4.03;2.00;;;17.20;99.90;;;;;;5035310;28;20515;-88
2023/08/27 10:45:25;;;;;;;1.90;1.42;;;17.20;99.90;;;;;;5036336;28;20028;-86
2023/08/27 10:48:07;;;;;;;1.83;1.17;;;17.20;99.90;;;;;;5051360;28;20048;-85
2023/08/27 10:51:08;;;;;;;1.48;1.30;;;17.10;99.90;;;;;;5044271;28;20041;-85
2023/08/27 10:53:50;;;;;;;1.75;1.30;;;17.10;99.90;;;;;;5051311;28;20049;-87
2023/08/27 10:56:29;;;;;;;2.63;1.50;;;17.00;99.90;;;;;;5052680;28;20401;-85
2023/08/27 10:58:58;;;;;;;3.63;1.65;;;16.90;99.90;;;;;;5050051;28;20045;-84
2023/08/27 11:01:24;;;;;;;2.15;1.30;;;17.30;99.90;;;;;;5032321;28;20084;-81
2023/08/27 11:03:53;;;;;;;4.90;1.48;;;16.90;99.90;;;;;;5030921;28;20080;-84
2023/08/27 11:06:20;;;;;;;2.47;1.35;;;16.90;99.90;;;;;;5042939;28;20042;-84
2023/08/27 11:08:50;;;;;;;6.45;1.95;;;17.00;99.90;;;;;;5043372;28;20112;-82
2023/08/27 11:11:16;;;;;;;2.53;1.60;;;18.00;99.90;;;;;;5032837;28;20489;-86
2023/08/27 11:13:42;;;;;;;3.05;1.85;;;17.20;99.90;;;;;;5045251;28;20033;-82
2023/08/27 11:16:23;;;;;;;3.72;1.40;;;17.30;99.90;;;;;;5048494;28;20546;-83
2023/08/27 11:18:52;;;;;;;2.13;1.33;;;17.50;99.90;;;;;;5034605;28;20037;-83
2023/08/27 11:21:45;;;;;;;2.20;1.20;;;18.60;99.90;;;;;;5046305;28;20088;-84
2023/08/27 11:24:17;;;;;;;2.55;1.23;;;17.80;99.90;;;;;;5047764;28;20099;-81
2023/08/27 11:26:46;;;;;;;2.08;1.30;;;17.90;99.90;;;;;;5041066;28;20049;-79
2023/08/27 11:29:12;;;;;;;4.65;1.80;;;18.00;99.90;;;;;;5048505;28;20088;-80
2023/08/27 11:31:40;;;;;;;5.65;1.50;;;18.20;99.90;;;;;;5033368;28;20096;-83
2023/08/27 11:34:07;;;;;;;2.53;1.50;;;18.30;99.90;;;;;;5049067;28;20188;-82
2023/08/27 11:36:33;;;;;;;3.72;1.40;;;18.30;99.90;;;;;;5027393;28;20044;-83
2023/08/27 11:39:05;;;;;;;2.10;1.60;;;18.30;99.90;;;;;;5045455;28;20072;-80
2023/08/27 11:41:43;;;;;;;2.95;2.00;;;18.40;99.90;;;;;;4348867;28;10000779;-83
2023/08/27 11:44:13;;;;;;;4.20;2.15;;;18.10;99.90;;;;;;5045403;28;20046;-84
2023/08/27 11:46:43;;;;;;;3.78;2.40;;;18.00;99.90;;;;;;5046618;28;20473;-85
2023/08/27 11:49:12;;;;;;;2.65;2.40;;;18.00;99.90;;;;;;5042037;28;20095;-80
2023/08/27 11:51:39;;;;;;;3.25;2.83;;;18.00;99.90;;;;;;5042045;28;20045;-80
2023/08/27 11:54:10;;;;;;;3.95;2.40;;;18.00;99.90;;;;;;5047548;28;20045;-85
2023/08/27 11:56:37;;;;;;;3.95;2.58;;;17.90;99.90;;;;;;5049687;28;20037;-82
2023/08/27 11:59:06;;;;;;;2.67;2.08;;;17.90;99.90;;;;;;5046618;28;20401;-83
2023/08/27 12:01:33;;;;;;;1.63;1.00;;;17.80;99.90;;;;;;5047271;28;20112;-82
2023/08/27 12:04:00;;;;;;;1.05;0.30;;;17.70;99.90;;;;;;5047816;28;20045;-83
2023/08/27 12:06:28;;;;;;;2.95;0.22;;;17.50;99.90;;;;;;5039370;28;20037;-83
2023/08/27 12:08:55;;;;;;;2.03;0.52;;;17.20;99.90;;;;;;5046849;28;20040;-82
2023/08/27 12:11:27;;;;;;;2.72;0.40;;;17.10;99.90;;;;;;5045918;28;20055;-82
2023/08/27 12:14:00;;;;;;;1.33;0.30;;;16.80;99.90;;;;;;5010633;28;20550;-83
2023/08/27 12:16:30;;;;;;;3.92;0.55;;;16.50;99.90;;;;;;5025786;28;20052;-82
2023/08/27 12:19:19;;;;;;;1.80;0.30;;;16.20;99.90;;;;;;5042307;28;20053;-81
2023/08/27 12:21:47;;;;;;;2.28;0.73;;;15.90;99.90;;;;;;5025025;28;20183;-81
2023/08/27 12:24:43;;;;;;;0.90;0.40;;;15.70;99.90;;;;;;5034344;28;20241;-82
2023/08/27 12:27:16;;;;;;;5.68;0.82;;;15.50;99.90;;;;;;5042803;28;20493;-80
2023/08/27 12:29:44;;;;;;;3.97;0.30;;;15.40;99.90;;;;;;5048514;28;20059;-80
2023/08/27 12:32:11;;;;;;;2.15;0.57;;;15.40;99.90;;;;;;5032194;28;20060;-80
2023/08/27 12:34:52;;;;;;;0.80;0.30;;;15.40;99.90;;;;;;5015888;28;20044;-81
2023/08/27 12:37:20;;;;;;;1.08;0.40;;;15.30;99.90;;;;;;5031311;28;20055;-82
2023/08/27 12:39:46;;;;;;;3.58;0.63;;;15.30;99.90;;;;;;5047519;28;20068;-81
2023/08/27 12:42:14;;;;;;;1.85;0.40;;;15.30;99.90;;;;;;5046921;28;20562;-83
2023/08/27 12:44:40;;;;;;;2.00;0.40;;;15.30;99.90;;;;;;5046012;28;20040;-85
2023/08/27 12:47:07;;;;;;;3.45;0.30;;;15.40;99.90;;;;;;5029081;28;20575;-82